Forestville, California
Current Conditions -  °F | °C
As of 6:53 AM on Monday 22 Dec 2014 (Local Time) from KSTS Reporting Station
Light Fog Light Fog  
Wind Chill: 47°   Ceiling: Unl
Heat Index: 47°   Visibility: 10mi
Dew Point: 47°   Wind: 0mph
Humidity: 100%   Direction: NA
Pressure: 30.25"   Gusts: NA
Location:  38.47°N, 122.89°W
Report Text: KSTS 221453Z 00000KT 10SM BCFG FEW030 08/08 A3025 RMK AO2 SLP238 T00830083 56001
Loading
Personal Weather Stations






























Interactive Weather Map New forecast layout! Learn more

10-Day Weather Forecast

Advertisements
Track Severe Weather on mobile